sensor_id;sensor_type;location;lat;lon;timestamp;P1;durP1;ratioP1;P2;durP2;ratioP2
6858;SDS011;3468;42.824;23.240;2024-02-14T00:01:59;9.80;;;5.67;;
6858;SDS011;3468;42.824;23.240;2024-02-14T00:04:26;8.43;;;5.40;;
6858;SDS011;3468;42.824;23.240;2024-02-14T00:06:52;7.07;;;5.23;;
6858;SDS011;3468;42.824;23.240;2024-02-14T00:09:19;13.10;;;6.17;;
6858;SDS011;3468;42.824;23.240;2024-02-14T00:11:46;9.70;;;5.47;;
6858;SDS011;3468;42.824;23.240;2024-02-14T00:14:13;14.17;;;6.40;;
6858;SDS011;3468;42.824;23.240;2024-02-14T00:16:39;9.80;;;6.30;;
6858;SDS011;3468;42.824;23.240;2024-02-14T00:19:08;6.80;;;4.70;;
6858;SDS011;3468;42.824;23.240;2024-02-14T00:21:34;7.57;;;5.07;;
6858;SDS011;3468;42.824;23.240;2024-02-14T00:24:01;6.70;;;4.43;;
6858;SDS011;3468;42.824;23.240;2024-02-14T00:26:28;6.67;;;4.47;;
6858;SDS011;3468;42.824;23.240;2024-02-14T00:28:54;6.40;;;4.33;;
6858;SDS011;3468;42.824;23.240;2024-02-14T00:31:21;6.47;;;4.40;;
6858;SDS011;3468;42.824;23.240;2024-02-14T00:33:48;7.07;;;4.80;;
6858;SDS011;3468;42.824;23.240;2024-02-14T00:36:17;6.90;;;4.17;;
6858;SDS011;3468;42.824;23.240;2024-02-14T00:38:44;7.63;;;4.57;;
6858;SDS011;3468;42.824;23.240;2024-02-14T00:41:11;7.20;;;4.57;;
6858;SDS011;3468;42.824;23.240;2024-02-14T00:43:38;6.97;;;4.60;;
6858;SDS011;3468;42.824;23.240;2024-02-14T00:46:05;8.30;;;5.33;;
6858;SDS011;3468;42.824;23.240;2024-02-14T00:48:31;7.07;;;4.77;;
6858;SDS011;3468;42.824;23.240;2024-02-14T00:50:58;7.13;;;5.07;;
6858;SDS011;3468;42.824;23.240;2024-02-14T00:53:26;7.97;;;4.97;;
6858;SDS011;3468;42.824;23.240;2024-02-14T00:55:53;9.53;;;5.83;;
6858;SDS011;3468;42.824;23.240;2024-02-14T00:58:20;6.97;;;4.67;;
6858;SDS011;3468;42.824;23.240;2024-02-14T01:00:46;8.40;;;5.43;;
6858;SDS011;3468;42.824;23.240;2024-02-14T01:03:13;6.63;;;5.17;;
6858;SDS011;3468;42.824;23.240;2024-02-14T01:05:41;8.33;;;4.73;;
6858;SDS011;3468;42.824;23.240;2024-02-14T01:08:08;6.80;;;5.03;;
6858;SDS011;3468;42.824;23.240;2024-02-14T01:10:36;8.50;;;5.20;;
6858;SDS011;3468;42.824;23.240;2024-02-14T01:13:03;10.50;;;5.30;;
6858;SDS011;3468;42.824;23.240;2024-02-14T01:15:31;8.53;;;5.67;;
6858;SDS011;3468;42.824;23.240;2024-02-14T01:17:58;8.70;;;5.90;;
6858;SDS011;3468;42.824;23.240;2024-02-14T01:20:25;8.03;;;5.37;;
6858;SDS011;3468;42.824;23.240;2024-02-14T01:22:52;8.70;;;5.93;;
6858;SDS011;3468;42.824;23.240;2024-02-14T01:25:18;9.37;;;6.00;;
6858;SDS011;3468;42.824;23.240;2024-02-14T01:27:47;8.17;;;5.53;;
6858;SDS011;3468;42.824;23.240;2024-02-14T01:30:14;8.53;;;5.67;;
6858;SDS011;3468;42.824;23.240;2024-02-14T01:32:41;8.50;;;5.70;;
6858;SDS011;3468;42.824;23.240;2024-02-14T01:35:08;9.27;;;5.93;;
6858;SDS011;3468;42.824;23.240;2024-02-14T01:37:35;8.53;;;5.93;;
6858;SDS011;3468;42.824;23.240;2024-02-14T01:40:02;9.50;;;6.27;;
6858;SDS011;3468;42.824;23.240;2024-02-14T01:42:29;8.90;;;5.70;;
6858;SDS011;3468;42.824;23.240;2024-02-14T01:44:57;9.17;;;5.73;;
6858;SDS011;3468;42.824;23.240;2024-02-14T01:47:24;11.00;;;6.47;;
6858;SDS011;3468;42.824;23.240;2024-02-14T01:49:51;8.67;;;6.17;;
6858;SDS011;3468;42.824;23.240;2024-02-14T01:52:18;11.80;;;6.37;;
6858;SDS011;3468;42.824;23.240;2024-02-14T01:54:46;8.93;;;6.17;;
6858;SDS011;3468;42.824;23.240;2024-02-14T01:57:13;10.47;;;6.40;;
6858;SDS011;3468;42.824;23.240;2024-02-14T01:59:41;10.37;;;6.53;;
6858;SDS011;3468;42.824;23.240;2024-02-14T02:02:09;13.50;;;6.77;;
6858;SDS011;3468;42.824;23.240;2024-02-14T02:04:36;9.43;;;6.70;;
6858;SDS011;3468;42.824;23.240;2024-02-14T02:07:03;9.87;;;6.87;;
6858;SDS011;3468;42.824;23.240;2024-02-14T02:09:30;13.00;;;7.10;;
6858;SDS011;3468;42.824;23.240;2024-02-14T02:11:58;11.60;;;6.90;;
6858;SDS011;3468;42.824;23.240;2024-02-14T02:14:25;10.87;;;7.23;;
6858;SDS011;3468;42.824;23.240;2024-02-14T02:16:53;11.70;;;7.70;;
6858;SDS011;3468;42.824;23.240;2024-02-14T02:19:21;11.27;;;7.17;;
6858;SDS011;3468;42.824;23.240;2024-02-14T02:21:48;11.97;;;7.20;;
6858;SDS011;3468;42.824;23.240;2024-02-14T02:24:16;11.47;;;6.80;;
6858;SDS011;3468;42.824;23.240;2024-02-14T02:26:43;10.13;;;6.87;;
6858;SDS011;3468;42.824;23.240;2024-02-14T02:29:10;9.37;;;6.20;;
6858;SDS011;3468;42.824;23.240;2024-02-14T02:31:36;9.43;;;6.47;;
6858;SDS011;3468;42.824;23.240;2024-02-14T02:34:03;10.40;;;6.00;;
6858;SDS011;3468;42.824;23.240;2024-02-14T02:36:30;13.00;;;6.80;;
6858;SDS011;3468;42.824;23.240;2024-02-14T02:38:57;10.97;;;6.53;;
6858;SDS011;3468;42.824;23.240;2024-02-14T02:41:26;10.17;;;5.90;;
6858;SDS011;3468;42.824;23.240;2024-02-14T02:43:53;8.77;;;6.00;;
6858;SDS011;3468;42.824;23.240;2024-02-14T02:46:20;9.83;;;6.10;;
6858;SDS011;3468;42.824;23.240;2024-02-14T02:48:47;10.07;;;6.53;;
6858;SDS011;3468;42.824;23.240;2024-02-14T02:51:15;9.93;;;6.27;;
6858;SDS011;3468;42.824;23.240;2024-02-14T02:53:42;10.80;;;6.67;;
6858;SDS011;3468;42.824;23.240;2024-02-14T02:56:08;13.03;;;7.33;;
6858;SDS011;3468;42.824;23.240;2024-02-14T02:58:36;15.67;;;7.63;;
6858;SDS011;3468;42.824;23.240;2024-02-14T03:01:07;11.57;;;7.73;;
6858;SDS011;3468;42.824;23.240;2024-02-14T03:03:34;12.83;;;8.47;;
6858;SDS011;3468;42.824;23.240;2024-02-14T03:06:01;11.63;;;8.07;;
6858;SDS011;3468;42.824;23.240;2024-02-14T03:08:28;13.17;;;7.30;;
6858;SDS011;3468;42.824;23.240;2024-02-14T03:10:55;14.10;;;7.90;;
6858;SDS011;3468;42.824;23.240;2024-02-14T03:13:24;23.20;;;12.90;;
6858;SDS011;3468;42.824;23.240;2024-02-14T03:15:52;22.50;;;12.07;;
6858;SDS011;3468;42.824;23.240;2024-02-14T03:18:23;11.70;;;7.43;;
6858;SDS011;3468;42.824;23.240;2024-02-14T03:20:50;8.40;;;6.20;;
6858;SDS011;3468;42.824;23.240;2024-02-14T03:23:18;11.53;;;6.97;;
6858;SDS011;3468;42.824;23.240;2024-02-14T03:25:45;10.70;;;6.53;;
6858;SDS011;3468;42.824;23.240;2024-02-14T03:28:11;10.80;;;7.17;;
6858;SDS011;3468;42.824;23.240;2024-02-14T03:30:38;13.60;;;7.67;;
6858;SDS011;3468;42.824;23.240;2024-02-14T03:33:06;12.47;;;7.03;;
6858;SDS011;3468;42.824;23.240;2024-02-14T03:35:34;12.13;;;7.53;;
6858;SDS011;3468;42.824;23.240;2024-02-14T03:38:01;10.33;;;6.73;;
6858;SDS011;3468;42.824;23.240;2024-02-14T03:40:28;11.83;;;7.50;;
6858;SDS011;3468;42.824;23.240;2024-02-14T03:42:55;12.20;;;7.97;;
6858;SDS011;3468;42.824;23.240;2024-02-14T03:45:22;12.40;;;7.37;;
6858;SDS011;3468;42.824;23.240;2024-02-14T03:47:49;14.87;;;8.80;;
6858;SDS011;3468;42.824;23.240;2024-02-14T03:50:17;13.17;;;8.27;;
6858;SDS011;3468;42.824;23.240;2024-02-14T03:52:44;14.73;;;9.37;;
6858;SDS011;3468;42.824;23.240;2024-02-14T03:55:10;13.73;;;8.60;;
6858;SDS011;3468;42.824;23.240;2024-02-14T03:57:39;14.40;;;8.80;;
6858;SDS011;3468;42.824;23.240;2024-02-14T04:00:07;15.47;;;9.40;;
6858;SDS011;3468;42.824;23.240;2024-02-14T04:02:35;16.60;;;9.90;;
6858;SDS011;3468;42.824;23.240;2024-02-14T04:05:02;14.83;;;8.73;;
6858;SDS011;3468;42.824;23.240;2024-02-14T04:07:30;13.80;;;9.70;;
6858;SDS011;3468;42.824;23.240;2024-02-14T04:09:57;14.10;;;9.27;;
6858;SDS011;3468;42.824;23.240;2024-02-14T04:12:23;13.63;;;8.73;;
6858;SDS011;3468;42.824;23.240;2024-02-14T04:14:50;13.53;;;8.20;;
6858;SDS011;3468;42.824;23.240;2024-02-14T04:17:17;13.73;;;7.93;;
6858;SDS011;3468;42.824;23.240;2024-02-14T04:19:43;13.20;;;8.57;;
6858;SDS011;3468;42.824;23.240;2024-02-14T04:22:10;14.13;;;8.57;;
6858;SDS011;3468;42.824;23.240;2024-02-14T04:24:38;14.90;;;9.47;;
6858;SDS011;3468;42.824;23.240;2024-02-14T04:27:05;14.83;;;8.67;;
6858;SDS011;3468;42.824;23.240;2024-02-14T04:29:31;18.83;;;10.17;;
6858;SDS011;3468;42.824;23.240;2024-02-14T04:31:58;18.27;;;9.80;;
6858;SDS011;3468;42.824;23.240;2024-02-14T04:34:25;19.07;;;10.33;;
6858;SDS011;3468;42.824;23.240;2024-02-14T04:36:52;16.10;;;9.37;;
6858;SDS011;3468;42.824;23.240;2024-02-14T04:39:19;16.70;;;9.50;;
6858;SDS011;3468;42.824;23.240;2024-02-14T04:41:47;17.10;;;9.87;;
6858;SDS011;3468;42.824;23.240;2024-02-14T04:44:15;17.37;;;10.40;;
6858;SDS011;3468;42.824;23.240;2024-02-14T04:46:42;16.77;;;9.40;;
6858;SDS011;3468;42.824;23.240;2024-02-14T04:49:09;19.53;;;10.57;;
6858;SDS011;3468;42.824;23.240;2024-02-14T04:51:37;13.27;;;9.23;;
6858;SDS011;3468;42.824;23.240;2024-02-14T04:54:04;19.00;;;9.73;;
6858;SDS011;3468;42.824;23.240;2024-02-14T04:56:31;15.00;;;9.70;;
6858;SDS011;3468;42.824;23.240;2024-02-14T04:58:59;16.83;;;9.87;;
6858;SDS011;3468;42.824;23.240;2024-02-14T05:01:25;13.77;;;9.40;;
6858;SDS011;3468;42.824;23.240;2024-02-14T05:03:52;17.37;;;10.23;;
6858;SDS011;3468;42.824;23.240;2024-02-14T05:06:19;16.07;;;10.27;;
6858;SDS011;3468;42.824;23.240;2024-02-14T05:08:46;15.00;;;9.93;;
6858;SDS011;3468;42.824;23.240;2024-02-14T05:11:13;16.30;;;9.73;;
6858;SDS011;3468;42.824;23.240;2024-02-14T05:13:39;18.07;;;10.73;;
6858;SDS011;3468;42.824;23.240;2024-02-14T05:16:08;18.13;;;11.67;;
6858;SDS011;3468;42.824;23.240;2024-02-14T05:18:35;15.10;;;10.10;;
6858;SDS011;3468;42.824;23.240;2024-02-14T05:21:04;17.07;;;10.33;;
6858;SDS011;3468;42.824;23.240;2024-02-14T05:23:32;16.13;;;10.50;;
6858;SDS011;3468;42.824;23.240;2024-02-14T05:25:59;15.40;;;9.90;;
6858;SDS011;3468;42.824;23.240;2024-02-14T05:28:27;17.27;;;10.20;;
6858;SDS011;3468;42.824;23.240;2024-02-14T05:30:53;16.67;;;10.20;;
6858;SDS011;3468;42.824;23.240;2024-02-14T05:33:22;16.07;;;10.10;;
6858;SDS011;3468;42.824;23.240;2024-02-14T05:35:48;15.93;;;9.90;;
6858;SDS011;3468;42.824;23.240;2024-02-14T05:38:15;16.87;;;9.73;;
6858;SDS011;3468;42.824;23.240;2024-02-14T05:40:44;17.77;;;10.77;;
6858;SDS011;3468;42.824;23.240;2024-02-14T05:43:11;16.37;;;10.43;;
6858;SDS011;3468;42.824;23.240;2024-02-14T05:45:38;19.40;;;10.97;;
6858;SDS011;3468;42.824;23.240;2024-02-14T05:48:05;18.57;;;11.10;;
6858;SDS011;3468;42.824;23.240;2024-02-14T05:50:34;16.87;;;10.60;;
6858;SDS011;3468;42.824;23.240;2024-02-14T05:53:01;15.13;;;10.47;;
6858;SDS011;3468;42.824;23.240;2024-02-14T05:55:28;17.80;;;10.67;;
6858;SDS011;3468;42.824;23.240;2024-02-14T05:57:54;17.37;;;9.80;;
6858;SDS011;3468;42.824;23.240;2024-02-14T06:00:24;17.03;;;10.50;;
6858;SDS011;3468;42.824;23.240;2024-02-14T06:02:50;17.83;;;9.33;;
6858;SDS011;3468;42.824;23.240;2024-02-14T06:05:17;17.13;;;10.33;;
6858;SDS011;3468;42.824;23.240;2024-02-14T06:07:45;16.03;;;9.70;;
6858;SDS011;3468;42.824;23.240;2024-02-14T06:10:12;14.30;;;10.07;;
6858;SDS011;3468;42.824;23.240;2024-02-14T06:12:39;16.87;;;10.33;;
6858;SDS011;3468;42.824;23.240;2024-02-14T06:15:06;16.87;;;11.10;;
6858;SDS011;3468;42.824;23.240;2024-02-14T06:17:33;19.50;;;10.50;;
6858;SDS011;3468;42.824;23.240;2024-02-14T06:20:00;18.90;;;11.23;;
6858;SDS011;3468;42.824;23.240;2024-02-14T06:22:30;16.37;;;10.70;;
6858;SDS011;3468;42.824;23.240;2024-02-14T06:24:59;16.80;;;10.97;;
6858;SDS011;3468;42.824;23.240;2024-02-14T06:27:26;19.53;;;10.77;;
6858;SDS011;3468;42.824;23.240;2024-02-14T06:29:53;16.43;;;9.30;;
6858;SDS011;3468;42.824;23.240;2024-02-14T06:32:20;13.83;;;9.60;;
6858;SDS011;3468;42.824;23.240;2024-02-14T06:34:47;17.60;;;9.80;;
6858;SDS011;3468;42.824;23.240;2024-02-14T06:37:13;13.87;;;9.37;;
6858;SDS011;3468;42.824;23.240;2024-02-14T06:39:40;13.80;;;9.43;;
6858;SDS011;3468;42.824;23.240;2024-02-14T06:42:08;16.27;;;9.73;;
6858;SDS011;3468;42.824;23.240;2024-02-14T06:44:35;14.77;;;9.63;;
6858;SDS011;3468;42.824;23.240;2024-02-14T06:47:01;15.27;;;9.53;;
6858;SDS011;3468;42.824;23.240;2024-02-14T06:49:28;15.13;;;9.73;;
6858;SDS011;3468;42.824;23.240;2024-02-14T06:51:55;16.07;;;9.50;;
6858;SDS011;3468;42.824;23.240;2024-02-14T06:54:22;15.73;;;9.53;;
6858;SDS011;3468;42.824;23.240;2024-02-14T06:56:48;14.80;;;9.13;;
6858;SDS011;3468;42.824;23.240;2024-02-14T06:59:16;15.87;;;9.63;;
6858;SDS011;3468;42.824;23.240;2024-02-14T07:01:43;18.20;;;10.23;;
6858;SDS011;3468;42.824;23.240;2024-02-14T07:04:10;18.03;;;10.13;;
6858;SDS011;3468;42.824;23.240;2024-02-14T07:06:36;18.50;;;10.23;;
6858;SDS011;3468;42.824;23.240;2024-02-14T07:09:03;16.50;;;9.23;;
6858;SDS011;3468;42.824;23.240;2024-02-14T07:11:30;16.83;;;9.70;;
6858;SDS011;3468;42.824;23.240;2024-02-14T07:13:56;17.13;;;9.20;;
6858;SDS011;3468;42.824;23.240;2024-02-14T07:16:25;15.33;;;9.87;;
6858;SDS011;3468;42.824;23.240;2024-02-14T07:18:51;13.77;;;7.93;;
6858;SDS011;3468;42.824;23.240;2024-02-14T07:21:18;14.20;;;8.60;;
6858;SDS011;3468;42.824;23.240;2024-02-14T07:23:45;13.47;;;8.40;;
6858;SDS011;3468;42.824;23.240;2024-02-14T07:26:12;14.93;;;8.43;;
6858;SDS011;3468;42.824;23.240;2024-02-14T07:28:39;15.87;;;8.10;;
6858;SDS011;3468;42.824;23.240;2024-02-14T07:31:06;12.10;;;7.63;;
6858;SDS011;3468;42.824;23.240;2024-02-14T07:33:34;11.83;;;8.10;;
6858;SDS011;3468;42.824;23.240;2024-02-14T07:36:01;16.73;;;8.47;;
6858;SDS011;3468;42.824;23.240;2024-02-14T07:38:28;12.73;;;8.63;;
6858;SDS011;3468;42.824;23.240;2024-02-14T07:40:54;15.40;;;9.33;;
6858;SDS011;3468;42.824;23.240;2024-02-14T07:43:21;14.30;;;8.00;;
6858;SDS011;3468;42.824;23.240;2024-02-14T07:45:48;13.87;;;8.47;;
6858;SDS011;3468;42.824;23.240;2024-02-14T07:48:15;15.10;;;8.40;;
6858;SDS011;3468;42.824;23.240;2024-02-14T07:50:43;11.73;;;8.13;;
6858;SDS011;3468;42.824;23.240;2024-02-14T07:53:10;11.73;;;8.03;;
6858;SDS011;3468;42.824;23.240;2024-02-14T07:55:37;15.03;;;8.63;;
6858;SDS011;3468;42.824;23.240;2024-02-14T07:58:04;11.70;;;7.83;;
6858;SDS011;3468;42.824;23.240;2024-02-14T08:00:30;12.53;;;8.03;;
6858;SDS011;3468;42.824;23.240;2024-02-14T08:02:58;11.43;;;6.83;;
6858;SDS011;3468;42.824;23.240;2024-02-14T08:05:24;12.10;;;7.23;;
6858;SDS011;3468;42.824;23.240;2024-02-14T08:07:53;11.30;;;7.07;;
6858;SDS011;3468;42.824;23.240;2024-02-14T08:10:19;15.67;;;8.63;;
6858;SDS011;3468;42.824;23.240;2024-02-14T08:12:46;11.97;;;6.43;;
6858;SDS011;3468;42.824;23.240;2024-02-14T08:15:13;12.20;;;7.03;;
6858;SDS011;3468;42.824;23.240;2024-02-14T08:17:40;12.67;;;7.10;;
6858;SDS011;3468;42.824;23.240;2024-02-14T08:20:07;11.53;;;7.23;;
6858;SDS011;3468;42.824;23.240;2024-02-14T08:22:35;12.30;;;7.30;;
6858;SDS011;3468;42.824;23.240;2024-02-14T08:25:03;10.83;;;6.93;;
6858;SDS011;3468;42.824;23.240;2024-02-14T08:27:30;12.37;;;7.30;;
6858;SDS011;3468;42.824;23.240;2024-02-14T08:29:57;11.80;;;7.17;;
6858;SDS011;3468;42.824;23.240;2024-02-14T08:32:23;16.97;;;10.80;;
6858;SDS011;3468;42.824;23.240;2024-02-14T08:34:50;13.13;;;8.40;;
6858;SDS011;3468;42.824;23.240;2024-02-14T08:37:17;15.77;;;8.03;;
6858;SDS011;3468;42.824;23.240;2024-02-14T08:39:43;11.40;;;7.10;;
6858;SDS011;3468;42.824;23.240;2024-02-14T08:42:12;12.50;;;7.33;;
6858;SDS011;3468;42.824;23.240;2024-02-14T08:44:38;10.07;;;6.37;;
6858;SDS011;3468;42.824;23.240;2024-02-14T08:47:06;8.07;;;6.40;;
6858;SDS011;3468;42.824;23.240;2024-02-14T08:49:34;11.10;;;7.00;;
6858;SDS011;3468;42.824;23.240;2024-02-14T08:52:00;12.53;;;8.40;;
6858;SDS011;3468;42.824;23.240;2024-02-14T08:54:27;12.43;;;7.50;;
6858;SDS011;3468;42.824;23.240;2024-02-14T08:56:54;11.07;;;7.13;;
6858;SDS011;3468;42.824;23.240;2024-02-14T08:59:25;14.67;;;8.00;;
6858;SDS011;3468;42.824;23.240;2024-02-14T09:01:51;12.87;;;7.33;;
6858;SDS011;3468;42.824;23.240;2024-02-14T09:04:18;11.93;;;7.13;;
6858;SDS011;3468;42.824;23.240;2024-02-14T09:06:45;10.73;;;7.63;;
6858;SDS011;3468;42.824;23.240;2024-02-14T09:09:11;11.50;;;7.27;;
6858;SDS011;3468;42.824;23.240;2024-02-14T09:11:39;10.97;;;7.80;;
6858;SDS011;3468;42.824;23.240;2024-02-14T09:14:06;10.50;;;6.77;;
6858;SDS011;3468;42.824;23.240;2024-02-14T09:16:34;10.63;;;7.33;;
6858;SDS011;3468;42.824;23.240;2024-02-14T09:19:01;10.87;;;6.27;;
6858;SDS011;3468;42.824;23.240;2024-02-14T09:21:28;12.93;;;7.87;;
6858;SDS011;3468;42.824;23.240;2024-02-14T09:23:55;13.50;;;7.97;;
6858;SDS011;3468;42.824;23.240;2024-02-14T09:26:23;10.70;;;7.00;;
6858;SDS011;3468;42.824;23.240;2024-02-14T09:28:49;12.50;;;6.77;;
6858;SDS011;3468;42.824;23.240;2024-02-14T09:31:19;9.57;;;6.70;;
6858;SDS011;3468;42.824;23.240;2024-02-14T09:33:47;10.33;;;6.70;;
6858;SDS011;3468;42.824;23.240;2024-02-14T09:36:14;12.27;;;6.13;;
6858;SDS011;3468;42.824;23.240;2024-02-14T09:38:41;10.20;;;6.67;;
6858;SDS011;3468;42.824;23.240;2024-02-14T09:41:11;12.27;;;6.53;;
6858;SDS011;3468;42.824;23.240;2024-02-14T09:43:43;9.20;;;6.53;;
6858;SDS011;3468;42.824;23.240;2024-02-14T09:46:11;10.60;;;7.17;;
6858;SDS011;3468;42.824;23.240;2024-02-14T09:48:39;10.67;;;6.23;;
6858;SDS011;3468;42.824;23.240;2024-02-14T09:51:09;12.10;;;6.50;;
6858;SDS011;3468;42.824;23.240;2024-02-14T09:53:36;10.27;;;6.50;;
6858;SDS011;3468;42.824;23.240;2024-02-14T09:56:05;9.00;;;6.33;;
6858;SDS011;3468;42.824;23.240;2024-02-14T09:58:32;9.97;;;6.20;;
6858;SDS011;3468;42.824;23.240;2024-02-14T10:01:01;9.03;;;6.40;;
6858;SDS011;3468;42.824;23.240;2024-02-14T10:03:29;10.60;;;6.83;;
6858;SDS011;3468;42.824;23.240;2024-02-14T10:05:56;12.60;;;7.10;;
6858;SDS011;3468;42.824;23.240;2024-02-14T10:08:24;10.97;;;7.27;;
6858;SDS011;3468;42.824;23.240;2024-02-14T10:10:51;11.50;;;6.57;;
6858;SDS011;3468;42.824;23.240;2024-02-14T10:13:18;9.73;;;6.30;;
6858;SDS011;3468;42.824;23.240;2024-02-14T10:15:45;8.87;;;5.60;;
6858;SDS011;3468;42.824;23.240;2024-02-14T10:18:13;8.60;;;5.87;;
6858;SDS011;3468;42.824;23.240;2024-02-14T10:20:41;8.70;;;6.17;;
6858;SDS011;3468;42.824;23.240;2024-02-14T10:23:19;9.83;;;6.80;;
6858;SDS011;3468;42.824;23.240;2024-02-14T10:25:48;8.70;;;5.77;;
6858;SDS011;3468;42.824;23.240;2024-02-14T10:28:16;9.23;;;6.57;;
6858;SDS011;3468;42.824;23.240;2024-02-14T10:30:45;10.67;;;7.23;;
6858;SDS011;3468;42.824;23.240;2024-02-14T10:33:12;9.27;;;6.07;;
6858;SDS011;3468;42.824;23.240;2024-02-14T10:35:40;10.43;;;6.67;;
6858;SDS011;3468;42.824;23.240;2024-02-14T10:38:08;8.57;;;5.33;;
6858;SDS011;3468;42.824;23.240;2024-02-14T10:40:36;10.77;;;6.20;;
6858;SDS011;3468;42.824;23.240;2024-02-14T10:43:05;7.77;;;5.90;;
6858;SDS011;3468;42.824;23.240;2024-02-14T10:45:34;10.60;;;6.27;;
6858;SDS011;3468;42.824;23.240;2024-02-14T10:48:01;9.43;;;6.17;;
6858;SDS011;3468;42.824;23.240;2024-02-14T10:50:32;8.90;;;6.47;;
6858;SDS011;3468;42.824;23.240;2024-02-14T10:53:00;12.23;;;7.27;;
6858;SDS011;3468;42.824;23.240;2024-02-14T10:55:31;12.73;;;6.43;;
6858;SDS011;3468;42.824;23.240;2024-02-14T10:57:59;10.93;;;6.53;;
6858;SDS011;3468;42.824;23.240;2024-02-14T11:00:29;9.40;;;6.77;;
6858;SDS011;3468;42.824;23.240;2024-02-14T11:02:57;10.63;;;6.20;;
6858;SDS011;3468;42.824;23.240;2024-02-14T11:05:25;10.43;;;6.40;;
6858;SDS011;3468;42.824;23.240;2024-02-14T11:07:52;12.10;;;6.50;;
6858;SDS011;3468;42.824;23.240;2024-02-14T11:10:19;12.33;;;6.17;;
6858;SDS011;3468;42.824;23.240;2024-02-14T11:12:47;9.27;;;5.93;;
6858;SDS011;3468;42.824;23.240;2024-02-14T11:15:16;10.27;;;5.73;;
6858;SDS011;3468;42.824;23.240;2024-02-14T11:17:45;9.60;;;6.20;;
6858;SDS011;3468;42.824;23.240;2024-02-14T11:20:17;9.70;;;6.83;;
6858;SDS011;3468;42.824;23.240;2024-02-14T11:22:54;12.60;;;7.83;;
6858;SDS011;3468;42.824;23.240;2024-02-14T11:25:22;13.23;;;6.43;;
6858;SDS011;3468;42.824;23.240;2024-02-14T11:27:54;10.43;;;6.80;;
6858;SDS011;3468;42.824;23.240;2024-02-14T11:30:31;10.13;;;7.10;;
6858;SDS011;3468;42.824;23.240;2024-02-14T11:33:17;16.10;;;7.80;;
6858;SDS011;3468;42.824;23.240;2024-02-14T11:35:45;11.90;;;6.33;;
6858;SDS011;3468;42.824;23.240;2024-02-14T11:38:13;13.90;;;8.03;;
6858;SDS011;3468;42.824;23.240;2024-02-14T11:40:40;12.00;;;7.63;;
6858;SDS011;3468;42.824;23.240;2024-02-14T11:43:10;13.30;;;7.17;;
6858;SDS011;3468;42.824;23.240;2024-02-14T11:45:38;12.70;;;7.23;;
6858;SDS011;3468;42.824;23.240;2024-02-14T11:48:07;16.80;;;7.57;;
6858;SDS011;3468;42.824;23.240;2024-02-14T11:50:36;12.17;;;7.10;;
6858;SDS011;3468;42.824;23.240;2024-02-14T11:53:04;8.93;;;5.97;;
6858;SDS011;3468;42.824;23.240;2024-02-14T11:55:34;8.20;;;5.60;;
6858;SDS011;3468;42.824;23.240;2024-02-14T11:58:02;7.57;;;5.27;;
6858;SDS011;3468;42.824;23.240;2024-02-14T12:00:29;8.17;;;5.17;;
6858;SDS011;3468;42.824;23.240;2024-02-14T12:02:56;8.10;;;5.30;;
6858;SDS011;3468;42.824;23.240;2024-02-14T12:05:23;10.00;;;5.40;;
6858;SDS011;3468;42.824;23.240;2024-02-14T12:07:51;10.30;;;5.63;;
6858;SDS011;3468;42.824;23.240;2024-02-14T12:10:19;11.13;;;6.47;;
6858;SDS011;3468;42.824;23.240;2024-02-14T12:12:46;8.23;;;4.77;;
6858;SDS011;3468;42.824;23.240;2024-02-14T12:15:16;8.23;;;5.13;;
6858;SDS011;3468;42.824;23.240;2024-02-14T12:17:42;10.90;;;5.30;;
6858;SDS011;3468;42.824;23.240;2024-02-14T12:20:13;7.50;;;5.67;;
6858;SDS011;3468;42.824;23.240;2024-02-14T12:22:41;8.93;;;5.20;;
6858;SDS011;3468;42.824;23.240;2024-02-14T12:25:10;7.07;;;5.03;;
6858;SDS011;3468;42.824;23.240;2024-02-14T12:27:37;7.57;;;5.33;;
6858;SDS011;3468;42.824;23.240;2024-02-14T12:30:05;8.50;;;5.47;;
6858;SDS011;3468;42.824;23.240;2024-02-14T12:32:35;8.43;;;4.93;;
6858;SDS011;3468;42.824;23.240;2024-02-14T12:35:01;6.57;;;5.03;;
6858;SDS011;3468;42.824;23.240;2024-02-14T12:37:28;9.63;;;5.50;;
6858;SDS011;3468;42.824;23.240;2024-02-14T12:39:55;6.80;;;5.23;;
6858;SDS011;3468;42.824;23.240;2024-02-14T12:42:23;8.10;;;5.17;;
6858;SDS011;3468;42.824;23.240;2024-02-14T12:44:54;9.90;;;5.23;;
6858;SDS011;3468;42.824;23.240;2024-02-14T12:47:20;8.77;;;5.43;;
6858;SDS011;3468;42.824;23.240;2024-02-14T12:49:48;7.87;;;5.13;;
6858;SDS011;3468;42.824;23.240;2024-02-14T12:52:15;8.80;;;6.60;;
6858;SDS011;3468;42.824;23.240;2024-02-14T12:54:43;9.57;;;5.13;;
6858;SDS011;3468;42.824;23.240;2024-02-14T12:57:10;6.77;;;4.50;;
6858;SDS011;3468;42.824;23.240;2024-02-14T12:59:38;7.63;;;4.77;;
6858;SDS011;3468;42.824;23.240;2024-02-14T13:02:05;5.97;;;4.43;;
6858;SDS011;3468;42.824;23.240;2024-02-14T13:04:32;7.50;;;4.87;;
6858;SDS011;3468;42.824;23.240;2024-02-14T13:07:00;5.80;;;4.40;;
6858;SDS011;3468;42.824;23.240;2024-02-14T13:09:27;7.70;;;4.83;;
6858;SDS011;3468;42.824;23.240;2024-02-14T13:11:54;20.60;;;12.30;;
6858;SDS011;3468;42.824;23.240;2024-02-14T13:14:20;22.83;;;13.27;;
6858;SDS011;3468;42.824;23.240;2024-02-14T13:16:48;22.03;;;11.80;;
6858;SDS011;3468;42.824;23.240;2024-02-14T13:19:15;14.30;;;8.27;;
6858;SDS011;3468;42.824;23.240;2024-02-14T13:21:42;13.07;;;6.70;;
6858;SDS011;3468;42.824;23.240;2024-02-14T13:24:10;10.20;;;6.30;;
6858;SDS011;3468;42.824;23.240;2024-02-14T13:26:39;6.70;;;5.13;;
6858;SDS011;3468;42.824;23.240;2024-02-14T13:29:06;9.83;;;5.43;;
6858;SDS011;3468;42.824;23.240;2024-02-14T13:31:33;8.80;;;4.83;;
6858;SDS011;3468;42.824;23.240;2024-02-14T13:34:01;6.17;;;4.63;;
6858;SDS011;3468;42.824;23.240;2024-02-14T13:36:29;8.43;;;4.67;;
6858;SDS011;3468;42.824;23.240;2024-02-14T13:38:57;9.23;;;5.83;;
6858;SDS011;3468;42.824;23.240;2024-02-14T13:41:23;12.30;;;7.30;;
6858;SDS011;3468;42.824;23.240;2024-02-14T13:43:50;8.70;;;6.10;;
6858;SDS011;3468;42.824;23.240;2024-02-14T13:46:17;8.83;;;5.50;;
6858;SDS011;3468;42.824;23.240;2024-02-14T13:48:44;7.60;;;4.80;;
6858;SDS011;3468;42.824;23.240;2024-02-14T13:51:12;8.93;;;4.97;;
6858;SDS011;3468;42.824;23.240;2024-02-14T13:53:38;6.73;;;4.93;;
6858;SDS011;3468;42.824;23.240;2024-02-14T13:56:06;5.40;;;4.13;;
6858;SDS011;3468;42.824;23.240;2024-02-14T13:58:33;7.43;;;5.13;;
6858;SDS011;3468;42.824;23.240;2024-02-14T14:00:59;8.47;;;4.77;;
6858;SDS011;3468;42.824;23.240;2024-02-14T14:03:26;8.60;;;5.27;;
6858;SDS011;3468;42.824;23.240;2024-02-14T14:05:54;8.53;;;4.50;;
6858;SDS011;3468;42.824;23.240;2024-02-14T14:08:23;7.83;;;5.37;;
6858;SDS011;3468;42.824;23.240;2024-02-14T14:10:50;6.63;;;4.47;;
6858;SDS011;3468;42.824;23.240;2024-02-14T14:13:16;6.40;;;3.87;;
6858;SDS011;3468;42.824;23.240;2024-02-14T14:15:43;9.03;;;5.13;;
6858;SDS011;3468;42.824;23.240;2024-02-14T14:18:10;9.37;;;5.40;;
6858;SDS011;3468;42.824;23.240;2024-02-14T14:20:37;7.47;;;4.90;;
6858;SDS011;3468;42.824;23.240;2024-02-14T14:23:03;7.20;;;4.27;;
6858;SDS011;3468;42.824;23.240;2024-02-14T14:25:32;9.27;;;5.03;;
6858;SDS011;3468;42.824;23.240;2024-02-14T14:27:59;11.57;;;5.10;;
6858;SDS011;3468;42.824;23.240;2024-02-14T14:30:27;15.50;;;7.93;;
6858;SDS011;3468;42.824;23.240;2024-02-14T14:32:53;8.07;;;4.73;;
6858;SDS011;3468;42.824;23.240;2024-02-14T14:35:19;8.40;;;4.73;;
6858;SDS011;3468;42.824;23.240;2024-02-14T14:37:47;5.37;;;4.03;;
6858;SDS011;3468;42.824;23.240;2024-02-14T14:40:14;7.73;;;4.07;;
6858;SDS011;3468;42.824;23.240;2024-02-14T14:42:42;9.13;;;4.90;;
6858;SDS011;3468;42.824;23.240;2024-02-14T14:45:09;8.63;;;4.93;;
6858;SDS011;3468;42.824;23.240;2024-02-14T14:47:36;10.23;;;5.60;;
6858;SDS011;3468;42.824;23.240;2024-02-14T14:50:03;7.50;;;4.47;;
6858;SDS011;3468;42.824;23.240;2024-02-14T14:52:30;6.33;;;4.27;;